Time;durP1;ratioP1;P1;durP2;ratioP2;P2;SDS_P1;SDS_P2;PMS_P1;PMS_P2;Temp;Humidity;BMP_temperature;BMP_pressure;BME280_temperature;BME280_humidity;BME280_pressure;Samples;Min_cycle;Max_cycle;Signal;HPM_P1;HPM_P2
2022/08/21 00:01:15;;;;;;;14.18;5.75;;;;;;;15.74;100.00;96701.59;4967747;28;20113;-72
2022/08/21 00:03:41;;;;;;;13.50;5.70;;;;;;;15.73;100.00;96698.09;4971180;28;20047;-72
2022/08/21 00:06:07;;;;;;;19.52;6.43;;;;;;;15.80;100.00;96705.91;4969219;28;20226;-72
2022/08/21 00:08:33;;;;;;;14.55;5.78;;;;;;;15.81;100.00;96702.91;4969015;28;20058;-73
2022/08/21 00:11:00;;;;;;;16.73;5.57;;;;;;;15.79;100.00;96706.97;4969257;28;20133;-72
2022/08/21 00:13:25;;;;;;;14.35;6.00;;;;;;;15.53;100.00;96711.59;4967303;28;20424;-72
2022/08/21 00:15:51;;;;;;;13.15;5.60;;;;;;;15.53;100.00;96722.38;4968603;28;20327;-72
2022/08/21 00:18:18;;;;;;;14.32;5.72;;;;;;;15.47;100.00;96712.69;4967059;28;20121;-72
2022/08/21 00:20:45;;;;;;;15.48;6.00;;;;;;;15.35;100.00;96709.50;4968503;28;20031;-72
2022/08/21 00:23:11;;;;;;;14.40;6.00;;;;;;;15.23;100.00;96710.56;4967711;28;20750;-72
2022/08/21 00:25:37;;;;;;;19.63;6.78;;;;;;;15.23;100.00;96707.06;4969831;28;20042;-72
2022/08/21 00:28:04;;;;;;;14.93;5.95;;;;;;;15.23;100.00;96707.06;4965672;28;20489;-73
2022/08/21 00:30:30;;;;;;;17.73;6.50;;;;;;;15.14;100.00;96717.59;4965574;28;20763;-72
2022/08/21 00:32:57;;;;;;;14.32;5.88;;;;;;;15.16;100.00;96714.63;4968784;28;20540;-72
2022/08/21 00:35:29;;;;;;;14.38;6.03;;;;;;;15.18;100.00;96710.59;4966517;28;20042;-72
2022/08/21 00:37:55;;;;;;;16.02;6.03;;;;;;;15.12;100.00;96711.69;4967674;28;20050;-72
2022/08/21 00:40:30;;;;;;;15.57;6.13;;;;;;;15.10;100.00;96715.69;4967143;28;20046;-72
2022/08/21 00:42:57;;;;;;;17.90;6.18;;;;;;;14.95;100.00;96711.97;4969417;28;20406;-72
2022/08/21 00:45:23;;;;;;;14.43;6.07;;;;;;;14.93;100.00;96719.47;4967522;28;20038;-72
2022/08/21 00:47:49;;;;;;;16.10;6.55;;;;;;;14.87;100.00;96709.81;4967200;28;20201;-72
2022/08/21 00:50:15;;;;;;;18.67;6.30;;;;;;;14.65;100.00;96704.69;4967547;28;20757;-72
2022/08/21 00:52:41;;;;;;;16.58;6.20;;;;;;;14.63;100.00;96704.13;4965154;28;20038;-72
2022/08/21 00:55:11;;;;;;;14.45;5.88;;;;;;;14.59;100.00;96696.84;4969034;28;20221;-72
2022/08/21 00:57:47;;;;;;;18.05;5.88;;;;;;;14.43;100.00;96688.72;4968674;28;20047;-72
2022/08/21 01:00:23;;;;;;;16.27;5.95;;;;;;;14.41;100.00;96692.78;4966890;28;20037;-72
2022/08/21 01:02:49;;;;;;;13.10;6.00;;;;;;;14.29;100.00;96697.56;4966235;28;21229;-72
2022/08/21 01:05:14;;;;;;;15.07;6.20;;;;;;;14.40;100.00;96688.47;4969125;28;20042;-72
2022/08/21 01:07:41;;;;;;;19.52;6.70;;;;;;;14.45;100.00;96688.44;4967440;28;20341;-72
2022/08/21 01:10:08;;;;;;;18.00;5.78;;;;;;;14.42;100.00;96700.56;4965223;28;20035;-72
2022/08/21 01:12:34;;;;;;;16.33;5.60;;;;;;;14.35;100.00;96685.75;4968573;28;20046;-72
2022/08/21 01:15:03;;;;;;;20.02;6.70;;;;;;;14.51;100.00;96690.13;4968111;28;20236;-72
2022/08/21 01:17:28;;;;;;;12.80;7.25;;;;;;;14.61;100.00;96687.41;4968678;28;20073;-72
2022/08/21 01:19:58;;;;;;;17.48;5.97;;;;;;;14.53;100.00;96696.03;4967201;28;20038;-72
2022/08/21 01:22:23;;;;;;;16.92;6.40;;;;;;;14.60;100.00;96687.69;4966463;28;20050;-72
2022/08/21 01:24:49;;;;;;;16.23;6.50;;;;;;;14.64;100.00;96700.38;4965705;28;20101;-72
2022/08/21 01:27:15;;;;;;;15.82;6.30;;;;;;;14.57;100.00;96694.44;4965568;28;20050;-72
2022/08/21 01:29:52;;;;;;;17.95;6.50;;;;;;;14.62;100.00;96696.31;4967371;28;20070;-72
2022/08/21 01:32:19;;;;;;;16.20;6.15;;;;;;;14.65;100.00;96695.78;4965507;28;20137;-72
2022/08/21 01:34:47;;;;;;;13.90;6.53;;;;;;;14.58;100.00;96696.03;4968233;28;20045;-72
2022/08/21 01:37:14;;;;;;;15.93;6.50;;;;;;;14.53;100.00;96698.72;4967145;28;20100;-72
2022/08/21 01:39:41;;;;;;;23.02;7.30;;;;;;;14.50;100.00;96696.56;4968720;28;20552;-72
2022/08/21 01:42:07;;;;;;;16.15;6.53;;;;;;;14.35;100.00;96702.72;4966185;28;20140;-72
2022/08/21 01:44:33;;;;;;;21.17;7.68;;;;;;;14.32;100.00;96691.66;4972211;28;20811;-72
2022/08/21 01:47:02;;;;;;;17.90;8.45;;;;;;;14.30;100.00;96697.31;4969884;28;20100;-72
2022/08/21 01:49:27;;;;;;;20.63;7.43;;;;;;;14.26;100.00;96692.75;4970794;28;20252;-72
2022/08/21 01:51:53;;;;;;;16.20;7.93;;;;;;;14.12;100.00;96693.22;4968444;28;20126;-72
2022/08/21 01:54:19;;;;;;;24.45;7.43;;;;;;;14.16;100.00;96683.56;4970333;28;20039;-72
2022/08/21 01:56:47;;;;;;;17.48;7.30;;;;;;;14.19;100.00;96685.72;4970302;28;20382;-72
2022/08/21 01:59:13;;;;;;;24.55;7.38;;;;;;;14.09;100.00;96683.00;4970020;28;20034;-72
2022/08/21 02:01:41;;;;;;;17.33;6.90;;;;;;;14.07;100.00;96685.13;4969353;28;20465;-72
2022/08/21 02:04:08;;;;;;;18.92;8.00;;;;;;;14.07;100.00;96681.63;4987410;28;20355;-72
2022/08/21 02:06:34;;;;;;;28.45;8.27;;;;;;;13.95;100.00;96681.88;4971131;28;20050;-72
2022/08/21 02:09:01;;;;;;;16.98;6.68;;;;;;;13.97;100.00;96679.72;4969884;28;20563;-72
2022/08/21 02:11:26;;;;;;;19.10;7.53;;;;;;;13.97;100.00;96673.56;4969252;28;20042;-72
2022/08/21 02:13:52;;;;;;;27.13;8.45;;;;;;;13.87;100.00;96674.34;4972848;28;20512;-72
2022/08/21 02:16:17;;;;;;;19.38;7.38;;;;;;;13.82;100.00;96664.34;4970753;28;20540;-72
2022/08/21 02:18:43;;;;;;;15.25;7.90;;;;;;;13.83;100.00;96676.72;4970785;28;20933;-72
2022/08/21 02:21:09;;;;;;;22.08;7.25;;;;;;;13.92;100.00;96675.13;4970864;28;20121;-72
2022/08/21 02:23:35;;;;;;;17.60;8.02;;;;;;;13.89;100.00;96669.50;4971600;28;20563;-72
2022/08/21 02:26:02;;;;;;;17.60;7.85;;;;;;;13.77;100.00;96668.91;4969849;28;20049;-73
2022/08/21 02:28:28;;;;;;;24.58;8.20;;;;;;;13.51;100.00;96668.78;4970679;28;20042;-72
2022/08/21 02:30:54;;;;;;;22.67;7.53;;;;;;;13.58;100.00;96672.06;4969771;28;20054;-72
2022/08/21 02:33:20;;;;;;;15.82;7.25;;;;;;;13.66;100.00;96666.19;4970882;28;20066;-72
2022/08/21 02:35:47;;;;;;;17.38;7.57;;;;;;;13.71;100.00;96661.91;4971296;28;20121;-72
2022/08/21 02:38:25;;;;;;;19.73;7.72;;;;;;;13.59;100.00;96657.53;4969313;28;20027;-72
2022/08/21 02:40:52;;;;;;;15.80;7.35;;;;;;;13.49;100.00;96664.75;4968854;28;20069;-72
2022/08/21 02:43:21;;;;;;;18.63;8.13;;;;;;;13.53;100.00;96661.28;4968896;28;20066;-72
2022/08/21 02:45:50;;;;;;;22.00;8.45;;;;;;;13.63;100.00;96664.03;4971942;28;20057;-72
2022/08/21 02:48:19;;;;;;;18.40;8.10;;;;;;;13.65;100.00;96663.75;4969440;28;20113;-72
2022/08/21 02:50:52;;;;;;;26.33;7.82;;;;;;;13.70;100.00;96657.59;4972320;28;20049;-72
2022/08/21 02:53:18;;;;;;;20.23;7.95;;;;;;;13.73;100.00;96662.44;4969772;28;20042;-72
2022/08/21 02:55:47;;;;;;;17.20;8.70;;;;;;;13.69;100.00;96661.34;4969414;28;20045;-72
2022/08/21 02:58:15;;;;;;;24.40;8.52;;;;;;;13.65;100.00;96661.88;4969601;28;20042;-72
2022/08/21 03:00:41;;;;;;;26.70;8.77;;;;;;;13.56;100.00;96668.03;4971202;28;20438;-72
2022/08/21 03:03:07;;;;;;;21.67;9.40;;;;;;;13.49;100.00;96665.56;4971071;28;20248;-72
2022/08/21 03:05:34;;;;;;;19.75;8.32;;;;;;;13.45;100.00;96667.16;4968978;28;20054;-72
2022/08/21 03:08:03;;;;;;;17.42;7.25;;;;;;;13.47;100.00;96662.34;4966281;28;20101;-72
2022/08/21 03:10:30;;;;;;;16.40;8.05;;;;;;;13.49;100.00;96659.38;4969198;28;20325;-72
2022/08/21 03:12:56;;;;;;;24.98;8.40;;;;;;;13.49;100.00;96662.88;4972841;28;20522;-72
2022/08/21 03:15:24;;;;;;;20.92;8.10;;;;;;;13.51;100.00;96655.34;4968534;28;20114;-72
2022/08/21 03:17:50;;;;;;;24.00;9.48;;;;;;;13.50;100.00;96661.81;4970907;28;20129;-72
2022/08/21 03:20:22;;;;;;;22.10;8.55;;;;;;;13.43;100.00;96655.84;4969875;28;20049;-72
2022/08/21 03:22:48;;;;;;;17.35;8.15;;;;;;;13.43;100.00;96655.84;4968510;28;20126;-72
2022/08/21 03:25:13;;;;;;;22.30;8.20;;;;;;;13.49;100.00;96662.06;4971060;28;20034;-72
2022/08/21 03:27:39;;;;;;;20.00;8.95;;;;;;;13.51;100.00;96655.34;4969686;28;20523;-72
2022/08/21 03:30:06;;;;;;;24.92;8.82;;;;;;;13.53;100.00;96653.19;4966991;28;20034;-72
2022/08/21 03:32:33;;;;;;;17.48;7.80;;;;;;;13.53;100.00;96657.78;4966827;28;20464;-72
2022/08/21 03:35:00;;;;;;;21.27;8.05;;;;;;;13.50;100.00;96653.75;4968995;28;20170;-72
2022/08/21 03:37:26;;;;;;;26.33;8.73;;;;;;;13.49;100.00;96668.25;4969997;28;20082;-72
2022/08/21 03:39:52;;;;;;;16.92;8.15;;;;;;;13.45;100.00;96664.47;4970681;28;20042;-72
2022/08/21 03:42:17;;;;;;;19.90;8.32;;;;;;;13.44;100.00;96670.09;4970392;28;20445;-72
2022/08/21 03:44:43;;;;;;;26.77;8.63;;;;;;;13.37;100.00;96662.25;4969175;28;20389;-72
2022/08/21 03:47:09;;;;;;;19.52;8.95;;;;;;;13.33;100.00;96663.88;4966865;28;20050;-72
2022/08/21 03:49:35;;;;;;;21.42;8.82;;;;;;;13.25;100.00;96667.06;4968549;28;20472;-72
2022/08/21 03:52:01;;;;;;;20.10;8.85;;;;;;;13.13;100.00;96667.22;4969658;28;20335;-72
2022/08/21 03:54:27;;;;;;;18.20;8.40;;;;;;;13.16;100.00;96674.75;4969289;28;20063;-72
2022/08/21 03:56:52;;;;;;;28.92;9.82;;;;;;;13.18;100.00;96661.06;4968087;28;20038;-72
2022/08/21 03:59:18;;;;;;;24.05;9.85;;;;;;;13.13;100.00;96669.09;4968976;28;20038;-72
2022/08/21 04:01:54;;;;;;;22.48;9.75;;;;;;;13.18;100.00;96666.44;4968302;28;20405;-72
2022/08/21 04:04:20;;;;;;;22.75;9.00;;;;;;;13.16;100.00;96657.84;4970161;28;20121;-72
2022/08/21 04:06:46;;;;;;;18.52;8.18;;;;;;;13.18;100.00;96669.13;4968978;28;20513;-72
2022/08/21 04:09:11;;;;;;;27.90;8.88;;;;;;;13.03;100.00;96665.28;4969961;28;20149;-72
2022/08/21 04:11:37;;;;;;;20.13;8.85;;;;;;;13.00;100.00;96671.19;4969184;28;20393;-72
2022/08/21 04:14:04;;;;;;;26.52;10.20;;;;;;;13.03;100.00;96675.22;4971003;28;20514;-72
2022/08/21 04:16:30;;;;;;;17.88;8.38;;;;;;;13.04;100.00;96674.13;4966681;28;20761;-72
2022/08/21 04:18:56;;;;;;;24.48;9.20;;;;;;;12.96;100.00;96674.63;4966574;28;20661;-73
2022/08/21 04:21:22;;;;;;;24.27;8.75;;;;;;;12.94;100.00;96679.44;4966960;28;20492;-72
2022/08/21 04:23:48;;;;;;;29.10;10.05;;;;;;;12.99;100.00;96679.47;4969832;28;20045;-72
2022/08/21 04:26:13;;;;;;;21.10;9.05;;;;;;;13.00;100.00;96681.91;4970441;28;20034;-72
2022/08/21 04:28:39;;;;;;;23.63;9.43;;;;;;;13.03;100.00;96689.44;4967110;28;20261;-72
2022/08/21 04:31:05;;;;;;;25.83;9.50;;;;;;;12.94;100.00;96684.81;4981663;28;20046;-72
2022/08/21 04:33:30;;;;;;;21.65;9.43;;;;;;;12.96;100.00;96685.38;4969746;28;20053;-72
2022/08/21 04:35:56;;;;;;;24.58;9.43;;;;;;;13.01;100.00;96693.47;4968824;28;20031;-72
2022/08/21 04:38:21;;;;;;;21.08;9.00;;;;;;;13.02;100.00;96693.22;4965540;28;20100;-72
2022/08/21 04:40:48;;;;;;;22.73;8.90;;;;;;;13.02;100.00;96695.91;4968673;28;20053;-72
2022/08/21 04:43:14;;;;;;;23.55;9.40;;;;;;;13.01;100.00;96699.66;4966141;28;20038;-72
2022/08/21 04:45:47;;;;;;;24.42;9.82;;;;;;;13.08;100.00;96696.75;4968565;28;20046;-72
2022/08/21 04:48:15;;;;;;;27.08;9.40;;;;;;;13.10;100.00;96703.47;4967713;28;20125;-72
2022/08/21 04:50:48;;;;;;;23.23;10.70;;;;;;;13.14;100.00;96702.94;4968338;28;20053;-72
2022/08/21 04:53:22;;;;;;;27.38;9.98;;;;;;;13.14;100.00;96703.75;4968910;28;20049;-72
2022/08/21 04:55:50;;;;;;;29.80;9.68;;;;;;;13.21;100.00;96708.94;4971820;28;20085;-72
2022/08/21 04:58:20;;;;;;;35.78;10.98;;;;;;;13.14;100.00;96695.69;4968516;28;20038;-72
2022/08/21 05:00:47;;;;;;;26.55;9.82;;;;;;;13.19;100.00;96706.47;4969368;28;20065;-72
2022/08/21 05:03:15;;;;;;;27.50;10.68;;;;;;;13.28;100.00;96709.53;4967323;28;20551;-72
2022/08/21 05:05:41;;;;;;;23.15;9.27;;;;;;;13.33;100.00;96709.56;4986840;28;20046;-72
2022/08/21 05:08:09;;;;;;;24.60;9.88;;;;;;;13.38;100.00;96713.09;4966968;28;20579;-72
2022/08/21 05:10:35;;;;;;;26.05;10.65;;;;;;;13.32;100.00;96710.63;4968632;28;20465;-73
2022/08/21 05:13:01;;;;;;;29.13;10.48;;;;;;;13.26;100.00;96712.47;4968351;28;20054;-73
2022/08/21 05:15:26;;;;;;;36.95;10.98;;;;;;;13.25;100.00;96704.69;4968269;28;20134;-73
2022/08/21 05:17:52;;;;;;;23.75;9.95;;;;;;;13.34;100.00;96716.56;4968527;28;20065;-73
2022/08/21 05:20:19;;;;;;;23.15;11.05;;;;;;;13.38;100.00;96709.56;4970793;28;20480;-73
2022/08/21 05:22:45;;;;;;;29.70;10.10;;;;;;;13.42;100.00;96710.69;4971482;28;20027;-73
2022/08/21 05:25:10;;;;;;;31.55;10.43;;;;;;;13.48;100.00;96714.22;4972788;28;20042;-73
2022/08/21 05:27:38;;;;;;;25.70;10.18;;;;;;;13.47;100.00;96705.34;4972009;28;20038;-73
2022/08/21 05:30:05;;;;;;;33.30;11.27;;;;;;;13.55;100.00;96720.97;4970951;28;20124;-73
2022/08/21 05:32:31;;;;;;;30.30;10.70;;;;;;;13.63;100.00;96711.63;4970799;28;20657;-73
2022/08/21 05:34:56;;;;;;;27.02;10.23;;;;;;;13.76;100.00;96713.81;4971786;28;20038;-73
2022/08/21 05:37:21;;;;;;;35.40;11.77;;;;;;;13.83;100.00;96716.25;4969475;28;20242;-73
2022/08/21 05:39:47;;;;;;;31.70;12.65;;;;;;;13.88;100.00;96725.16;4970716;28;20477;-73
2022/08/21 05:42:12;;;;;;;33.40;13.18;;;;;;;13.94;100.00;96716.06;4968593;28;20498;-72
2022/08/21 05:44:38;;;;;;;32.63;12.85;;;;;;;13.94;100.00;96712.56;4970781;28;20506;-73
2022/08/21 05:47:06;;;;;;;33.00;12.05;;;;;;;13.99;100.00;96722.50;4971105;28;20501;-73
2022/08/21 05:49:32;;;;;;;29.83;11.48;;;;;;;14.09;100.00;96728.75;4971198;28;20073;-73
2022/08/21 05:51:57;;;;;;;34.60;12.20;;;;;;;14.22;100.00;96714.78;4972481;28;20179;-73
2022/08/21 05:54:23;;;;;;;35.08;13.00;;;;;;;14.33;100.00;96728.28;4973381;28;20043;-73
2022/08/21 05:56:48;;;;;;;27.38;11.55;;;;;;;14.42;100.00;96718.63;4972425;28;20044;-73
2022/08/21 05:59:14;;;;;;;28.77;10.68;;;;;;;14.53;100.00;96709.50;4971198;28;20167;-73
2022/08/21 06:01:40;;;;;;;29.75;11.73;;;;;;;14.63;100.00;96712.22;4970655;28;20153;-73
2022/08/21 06:04:06;;;;;;;40.78;12.80;;;;;;;14.68;100.00;96711.41;4969663;28;20050;-73
2022/08/21 06:06:32;;;;;;;34.65;12.45;;;;;;;14.67;100.00;96696.31;4972000;28;20042;-73
2022/08/21 06:08:58;;;;;;;34.97;12.20;;;;;;;14.84;100.00;96699.56;4970878;28;20553;-73
2022/08/21 06:11:24;;;;;;;35.33;13.05;;;;;;;14.94;100.00;96696.88;4971074;28;20091;-73
2022/08/21 06:13:49;;;;;;;30.73;12.57;;;;;;;15.10;100.00;96707.63;4970831;28;20110;-73
2022/08/21 06:16:16;;;;;;;30.52;12.43;;;;;;;15.16;100.00;96696.56;4971275;28;20034;-73
2022/08/21 06:18:42;;;;;;;39.00;14.20;;;;;;;15.24;100.00;96709.50;4971791;28;20054;-73
2022/08/21 06:21:08;;;;;;;39.80;14.63;;;;;;;15.32;100.00;96694.66;4970278;28;20118;-73
2022/08/21 06:23:34;;;;;;;38.60;15.45;;;;;;;15.44;100.00;96702.47;4970772;28;20464;-73
2022/08/21 06:26:05;;;;;;;42.53;16.10;;;;;;;15.52;100.00;96701.91;4971064;28;20109;-73
2022/08/21 06:28:32;;;;;;;39.53;13.23;;;;;;;15.67;100.00;96711.88;4971195;28;20046;-73
2022/08/21 06:30:57;;;;;;;29.27;11.80;;;;;;;15.76;100.00;96699.44;4970781;28;20030;-73
2022/08/21 06:33:23;;;;;;;30.52;11.60;;;;;;;15.83;100.00;96716.94;4965960;28;20057;-73
2022/08/21 06:35:49;;;;;;;29.20;11.35;;;;;;;15.89;100.00;96709.63;4281446;28;10000456;-73
2022/08/21 06:38:15;;;;;;;26.23;11.10;;;;;;;15.95;100.00;96711.22;4986193;28;20042;-73
2022/08/21 06:40:41;;;;;;;29.88;12.43;;;;;;;16.04;100.00;96706.06;4970411;28;20050;-73
2022/08/21 06:43:12;;;;;;;35.45;13.40;;;;;;;16.13;100.00;96707.09;4968246;28;20111;-73
2022/08/21 06:45:38;;;;;;;26.08;11.60;;;;;;;16.23;100.00;96704.34;4969235;28;20042;-73
2022/08/21 06:48:05;;;;;;;28.75;12.57;;;;;;;16.30;100.00;96702.13;4967449;28;20537;-73
2022/08/21 06:50:30;;;;;;;37.15;13.73;;;;;;;16.39;100.00;96711.25;4968518;28;20080;-73
2022/08/21 06:53:05;;;;;;;39.13;14.55;;;;;;;16.48;100.00;96706.06;4967013;28;20043;-73
2022/08/21 06:55:30;;;;;;;39.13;17.75;;;;;;;16.56;100.00;96710.88;4971757;28;20057;-73
2022/08/21 06:57:56;;;;;;;42.38;16.13;;;;;;;16.65;100.00;96706.53;4967760;28;20482;-73
2022/08/21 07:00:22;;;;;;;40.40;17.10;;;;;;;16.72;100.00;96692.69;4970577;28;20415;-73
2022/08/21 07:02:47;;;;;;;38.28;17.45;;;;;;;16.83;100.00;96709.66;4966374;28;20044;-73
2022/08/21 07:05:13;;;;;;;55.45;19.27;;;;;;;16.94;100.00;96703.88;4967634;28;20090;-73
2022/08/21 07:07:38;;;;;;;43.40;22.55;;;;;;;17.03;100.00;96695.16;4969915;28;20376;-73
2022/08/21 07:10:04;;;;;;;55.72;18.88;;;;;;;17.17;100.00;96696.13;4968907;28;20061;-73
2022/08/21 07:12:31;;;;;;;48.70;19.67;;;;;;;17.26;100.00;96689.81;4969143;28;20534;-73
2022/08/21 07:14:56;;;;;;;41.20;18.00;;;;;;;17.38;100.00;96700.25;4985975;28;20042;-73
2022/08/21 07:17:22;;;;;;;48.00;20.00;;;;;;;17.47;100.00;96695.81;4968462;28;20042;-73
2022/08/21 07:19:47;;;;;;;43.08;18.63;;;;;;;17.57;100.00;96700.31;4968750;28;20034;-73
2022/08/21 07:22:16;;;;;;;42.30;18.77;;;;;;;17.65;100.00;96696.97;4965745;28;20037;-73
2022/08/21 07:24:42;;;;;;;51.67;18.45;;;;;;;17.68;100.00;96701.03;4966626;28;20073;-73
2022/08/21 07:27:07;;;;;;;46.28;19.98;;;;;;;17.71;100.00;96692.34;4966127;28;20449;-73
2022/08/21 07:29:33;;;;;;;53.70;20.58;;;;;;;17.81;100.00;96695.75;4970785;28;20510;-73
2022/08/21 07:31:58;;;;;;;46.15;18.00;;;;;;;17.86;100.00;96691.38;4965537;28;20142;-73
2022/08/21 07:34:24;;;;;;;52.58;19.73;;;;;;;17.89;100.00;96694.28;4967693;28;20042;-73
2022/08/21 07:36:49;;;;;;;49.67;19.38;;;;;;;17.98;100.00;96691.78;4969147;28;20046;-73
2022/08/21 07:39:15;;;;;;;49.20;19.02;;;;;;;18.01;100.00;96691.19;4968611;28;20041;-73
2022/08/21 07:41:40;;;;;;;50.58;20.65;;;;;;;18.06;100.00;96696.56;4964937;28;20030;-73
2022/08/21 07:44:06;;;;;;;48.60;19.23;;;;;;;18.14;100.00;96686.97;4968994;28;20125;-73
2022/08/21 07:46:32;;;;;;;41.75;17.52;;;;;;;18.20;100.00;96691.19;4971740;28;20663;-73
2022/08/21 07:48:57;;;;;;;43.95;15.82;;;;;;;18.21;100.00;96701.75;4966000;28;20041;-73
2022/08/21 07:51:26;;;;;;;45.45;14.25;;;;;;;18.35;100.00;96688.28;4935298;28;20110;-73
2022/08/21 07:53:54;;;;;;;36.45;14.75;;;;;;;18.42;100.00;96696.84;4967487;28;20074;-73
2022/08/21 07:56:20;;;;;;;36.58;15.75;;;;;;;18.57;100.00;96685.00;4965598;28;20090;-73
2022/08/21 07:58:46;;;;;;;49.60;15.63;;;;;;;18.68;100.00;96680.25;4968250;28;20062;-73
2022/08/21 08:01:11;;;;;;;41.78;13.65;;;;;;;18.75;100.00;96677.97;4966953;28;20065;-74
2022/08/21 08:03:38;;;;;;;38.25;15.85;;;;;;;18.88;100.00;96683.44;4967349;28;20133;-73
2022/08/21 08:06:04;;;;;;;34.00;12.90;;;;;;;19.00;100.00;96683.00;4965573;28;20128;-73
2022/08/21 08:08:30;;;;;;;33.08;10.73;;;;;;;19.07;100.00;96677.19;4967955;28;20883;-73
2022/08/21 08:10:57;;;;;;;31.23;9.80;;;;;;;19.16;100.00;96678.91;4967027;28;20038;-73
2022/08/21 08:13:25;;;;;;;21.55;8.60;;;;;;;19.24;100.00;96682.84;4965001;28;20038;-73
2022/08/21 08:15:51;;;;;;;39.05;12.90;;;;;;;19.32;100.00;96682.16;4967412;28;20050;-74
2022/08/21 08:18:16;;;;;;;28.15;11.07;;;;;;;19.44;100.00;96671.63;4964965;28;20054;-73
2022/08/21 08:20:42;;;;;;;30.65;10.80;;;;;;;19.47;100.00;96672.94;4967164;28;20046;-74
2022/08/21 08:23:15;;;;;;;28.02;10.10;;;;;;;19.69;100.00;96672.28;4967492;28;20046;-73
2022/08/21 08:25:41;;;;;;;27.23;10.77;;;;;;;19.95;99.72;96672.59;4970474;28;20043;-73
2022/08/21 08:28:07;;;;;;;32.13;10.27;;;;;;;20.24;97.97;96678.47;4966710;28;20680;-74
2022/08/21 08:30:33;;;;;;;32.67;10.43;;;;;;;20.52;96.05;96679.22;4967068;28;20053;-74
2022/08/21 08:32:59;;;;;;;32.22;9.55;;;;;;;20.79;95.40;96672.91;4944623;28;20046;-73
2022/08/21 08:35:26;;;;;;;31.33;10.93;;;;;;;20.95;94.25;96676.06;4966977;28;20050;-73
2022/08/21 08:37:52;;;;;;;34.08;11.10;;;;;;;21.23;92.27;96676.69;4966668;28;20050;-73
2022/08/21 08:40:28;;;;;;;29.70;10.13;;;;;;;21.48;91.37;96678.00;4969415;28;20042;-74
2022/08/21 08:42:54;;;;;;;32.50;9.60;;;;;;;21.13;92.53;96674.25;4967596;28;20130;-73
2022/08/21 08:45:23;;;;;;;25.25;9.68;;;;;;;21.09;91.55;96681.44;4967332;28;20535;-74
2022/08/21 08:48:02;;;;;;;27.55;8.70;;;;;;;20.94;92.54;96676.38;4966485;28;20283;-74
2022/08/21 08:50:39;;;;;;;27.00;8.35;;;;;;;21.11;90.93;96676.47;4966705;28;20157;-73
2022/08/21 08:53:27;;;;;;;26.60;9.13;;;;;;;21.14;91.12;96673.94;4964946;28;20449;-73
2022/08/21 08:55:53;;;;;;;24.73;8.80;;;;;;;21.43;90.79;96672.69;4967633;28;20072;-74
2022/08/21 08:58:24;;;;;;;19.33;6.32;;;;;;;21.61;86.10;96670.84;4966937;28;20670;-74
2022/08/21 09:00:53;;;;;;;25.00;5.97;;;;;;;21.74;86.21;96671.84;4968525;28;20034;-74
2022/08/21 09:03:18;;;;;;;17.77;6.97;;;;;;;21.69;84.70;96667.34;4966092;28;20047;-74
2022/08/21 09:06:06;;;;;;;26.25;7.03;;;;;;;21.74;83.27;96666.41;4970339;28;20407;-74
2022/08/21 09:08:58;;;;;;;16.10;5.68;;;;;;;21.65;83.08;96666.38;4968795;28;20042;-73
2022/08/21 09:11:32;;;;;;;24.08;5.70;;;;;;;21.11;83.80;96662.88;4966976;28;20089;-74
2022/08/21 09:14:16;;;;;;;21.13;5.85;;;;;;;21.09;84.24;96656.94;4968498;28;20085;-74
2022/08/21 09:17:23;;;;;;;26.52;5.93;;;;;;;21.39;83.14;96658.88;4965881;28;20039;-73
2022/08/21 09:20:08;;;;;;;21.17;4.90;;;;;;;21.39;82.32;96652.63;4966984;28;20114;-73
2022/08/21 09:23:15;;;;;;;30.13;5.70;;;;;;;21.77;80.32;96657.59;4970269;28;20042;-74
2022/08/21 09:25:49;;;;;;;26.75;5.65;;;;;;;21.84;80.23;96652.50;4967097;28;20126;-73
2022/08/21 09:28:15;;;;;;;23.92;4.78;;;;;;;22.04;77.55;96645.69;4965043;28;20490;-74
2022/08/21 09:30:41;;;;;;;21.55;5.25;;;;;;;22.29;70.70;96644.94;4968093;28;20122;-73
2022/08/21 09:33:09;;;;;;;25.17;6.18;;;;;;;22.63;73.23;96646.88;4966553;28;20048;-74
2022/08/21 09:35:36;;;;;;;17.60;5.78;;;;;;;22.90;72.65;96651.22;4964256;28;20081;-74
2022/08/21 09:38:07;;;;;;;19.40;5.43;;;;;;;21.98;74.17;96643.09;4968220;28;20038;-74
2022/08/21 09:40:36;;;;;;;19.95;5.68;;;;;;;22.47;74.96;96652.00;4968026;28;20471;-74
2022/08/21 09:43:06;;;;;;;14.35;4.43;;;;;;;22.91;71.11;96650.09;4967852;28;20765;-73
2022/08/21 09:45:33;;;;;;;18.52;4.78;;;;;;;23.20;69.37;96649.41;4935886;28;20050;-74
2022/08/21 09:48:19;;;;;;;23.13;4.90;;;;;;;23.56;63.39;96635.28;4964398;28;20596;-74
2022/08/21 09:50:45;;;;;;;19.85;5.50;;;;;;;23.45;64.53;96641.47;4969666;28;20037;-74
2022/08/21 09:53:25;;;;;;;27.70;4.45;;;;;;;23.70;65.15;96637.84;4965958;28;20567;-73
2022/08/21 09:59:24;;;;;;;22.58;5.25;;;;;;;23.81;61.32;96624.59;4967263;28;20632;-74
2022/08/21 10:01:51;;;;;;;23.50;5.68;;;;;;;23.98;63.27;96630.00;4965831;28;20074;-74
2022/08/21 10:04:28;;;;;;;20.85;5.43;;;;;;;23.83;60.66;96633.28;4968624;28;20038;-74
2022/08/21 10:07:10;;;;;;;23.27;5.13;;;;;;;23.67;60.81;96626.78;4970365;28;20174;-74
2022/08/21 10:09:36;;;;;;;16.15;5.28;;;;;;;23.58;66.31;96622.13;4971950;28;20117;-74
2022/08/21 10:12:20;;;;;;;18.95;5.43;;;;;;;23.69;63.48;96622.59;4969367;28;20687;-74
2022/08/21 10:15:23;;;;;;;23.20;5.05;;;;;;;23.77;61.57;96615.47;4971172;28;20046;-74
2022/08/21 10:18:00;;;;;;;18.85;5.85;;;;;;;23.67;62.33;96607.66;4971516;28;20038;-74
2022/08/21 10:20:40;;;;;;;15.98;5.43;;;;;;;23.90;58.87;96609.78;4967943;28;20047;-74
2022/08/21 10:23:37;;;;;;;19.63;4.55;;;;;;;24.42;54.73;96611.38;4967592;28;20043;-74
2022/08/21 10:26:25;;;;;;;17.15;3.65;;;;;;;24.30;50.38;96611.28;4969431;28;20044;-74
2022/08/21 10:29:21;;;;;;;14.75;4.43;;;;;;;24.44;51.74;96607.19;4970323;28;20039;-74
2022/08/21 10:32:05;;;;;;;14.18;4.35;;;;;;;24.66;52.50;96600.53;4968380;28;20043;-74
2022/08/21 10:34:45;;;;;;;19.17;4.53;;;;;;;24.74;51.45;96596.13;4969485;28;20041;-73
2022/08/21 10:37:22;;;;;;;14.35;3.60;;;;;;;25.42;49.91;96595.75;4968698;28;20549;-73
2022/08/21 10:40:10;;;;;;;15.52;4.13;;;;;;;25.74;46.91;96594.88;4970474;28;20414;-74
2022/08/21 10:42:44;;;;;;;14.68;4.03;;;;;;;25.92;45.69;96586.44;4970852;28;20509;-73
2022/08/21 10:45:22;;;;;;;12.98;3.92;;;;;;;25.91;46.53;96585.63;4971328;28;20492;-73
2022/08/21 10:47:53;;;;;;;15.98;3.90;;;;;;;26.32;44.89;96590.03;4970331;28;20043;-73
2022/08/21 10:50:24;;;;;;;15.20;4.05;;;;;;;26.60;42.89;96587.31;4969995;28;20078;-74
2022/08/21 10:53:08;;;;;;;13.10;4.60;;;;;;;27.26;40.46;96591.50;4969383;28;20556;-74
2022/08/21 10:56:12;;;;;;;15.98;4.25;;;;;;;26.41;42.68;96589.91;4969458;28;20042;-74
2022/08/21 10:58:47;;;;;;;16.42;4.65;;;;;;;27.48;40.80;96599.13;4959134;28;20090;-74
2022/08/21 11:01:27;;;;;;;17.38;4.22;;;;;;;27.54;38.64;96593.34;4968865;28;20497;-73
2022/08/21 11:04:12;;;;;;;17.38;3.95;;;;;;;30.82;31.71;96575.47;4970188;28;20054;-73
2022/08/21 11:06:46;;;;;;;13.77;4.13;;;;;;;28.22;37.90;96584.75;4971331;28;20121;-74
2022/08/21 11:09:18;;;;;;;15.27;3.90;;;;;;;28.52;37.49;96585.84;4969989;28;20057;-74
2022/08/21 11:11:54;;;;;;;14.45;3.97;;;;;;;27.10;38.39;96587.94;4971521;28;20504;-73
2022/08/21 11:14:38;;;;;;;12.98;3.85;;;;;;;28.89;33.58;96587.34;4970533;28;20157;-73
2022/08/21 11:17:09;;;;;;;11.35;3.28;;;;;;;28.49;34.49;96580.28;4968922;28;20046;-74
2022/08/21 11:19:51;;;;;;;17.10;3.70;;;;;;;28.15;36.10;96585.41;4973467;28;20038;-73
2022/08/21 11:22:23;;;;;;;16.77;3.30;;;;;;;27.35;37.61;96583.88;4989083;28;20054;-73
2022/08/21 11:25:02;;;;;;;14.38;4.20;;;;;;;26.30;37.93;96581.34;4969013;28;20148;-73
2022/08/21 11:27:39;;;;;;;9.95;3.42;;;;;;;33.23;28.12;96575.56;4967382;28;20050;-74
2022/08/21 11:30:06;;;;;;;14.18;3.75;;;;;;;36.45;24.67;96566.66;4966975;28;20081;-74